Avon Lake, Ohio
Current Conditions -  °F | °C
As of 2:51 AM on Sunday 21 Dec 2014 (Local Time) from KCLE Reporting Station
Overcast Overcast  
Wind Chill: -2°   Ceiling: 3200
Heat Index: -2°   Visibility: 8mi
Dew Point: -5°   Wind: 3mph
Humidity: 78%   Direction: 210°SSW
Pressure: 30.32"   Gusts: NA
Location:  41.51°N, 82.02°W
Report Text: KCLE 210751Z 21003KT 8SM OVC032 M02/M05 A3032 RMK AO2 SLP275 T10171050 $
Loading
Personal Weather Stations






























Interactive Weather Map New forecast layout! Learn more

10-Day Weather Forecast

Advertisements
Track Severe Weather on mobile